Time;durP1;ratioP1;P1;durP2;ratioP2;P2;SDS_P1;SDS_P2;PMS_P1;PMS_P2;Temp;Humidity;BMP_temperature;BMP_pressure;BME280_temperature;BME280_humidity;BME280_pressure;Samples;Min_cycle;Max_cycle;Signal;HPM_P1;HPM_P2
2023/07/22 00:00:50;;;;;;;6.20;2.92;;;;;;;;;;5087562;28;20020;-62
2023/07/22 00:03:15;;;;;;;6.00;3.10;;;;;;;;;;5083927;28;20022;-63
2023/07/22 00:05:42;;;;;;;6.40;3.10;;;;;;;;;;5087911;28;20130;-63
2023/07/22 00:08:09;;;;;;;7.40;2.53;;;;;;;;;;5084904;28;20015;-63
2023/07/22 00:10:35;;;;;;;6.18;3.00;;;;;;;;;;5080675;28;20655;-63
2023/07/22 00:13:01;;;;;;;5.63;2.63;;;;;;;;;;5077943;28;20103;-63
2023/07/22 00:15:26;;;;;;;6.20;2.67;;;;;;;;;;5075198;28;20289;-63
2023/07/22 00:17:51;;;;;;;8.13;3.03;;;;;;;;;;5084978;28;20044;-63
2023/07/22 00:20:19;;;;;;;5.93;3.00;;;;;;;;;;5078379;28;20077;-64
2023/07/22 00:22:45;;;;;;;6.50;3.03;;;;;;;;;;5089173;27;20439;-63
2023/07/22 00:25:10;;;;;;;8.20;3.40;;;;;;;;;;5081301;28;20027;-64
2023/07/22 00:27:40;;;;;;;5.45;2.88;;;;;;;;;;5088292;28;20787;-63
2023/07/22 00:30:08;;;;;;;7.88;3.20;;;;;;;;;;5081325;28;20655;-64
2023/07/22 00:32:37;;;;;;;5.82;2.90;;;;;;;;;;5088579;28;20874;-62
2023/07/22 00:35:03;;;;;;;5.77;2.73;;;;;;;;;;5087240;28;20031;-63
2023/07/22 00:37:28;;;;;;;6.63;3.03;;;;;;;;;;5080307;28;20019;-63
2023/07/22 00:39:56;;;;;;;5.33;2.70;;;;;;;;;;5088927;27;20016;-63
2023/07/22 00:42:24;;;;;;;7.75;2.95;;;;;;;;;;5084872;28;20246;-63
2023/07/22 00:44:49;;;;;;;6.30;2.70;;;;;;;;;;5084432;28;20011;-63
2023/07/22 00:47:18;;;;;;;8.27;3.45;;;;;;;;;;5082508;28;21151;-64
2023/07/22 00:49:44;;;;;;;7.65;3.13;;;;;;;;;;5081142;28;20034;-64
2023/07/22 00:52:09;;;;;;;6.72;3.13;;;;;;;;;;5081552;28;20015;-63
2023/07/22 00:54:37;;;;;;;5.67;2.60;;;;;;;;;;5086654;28;20054;-64
2023/07/22 00:57:03;;;;;;;8.30;3.03;;;;;;;;;;5088672;28;20257;-62
2023/07/22 00:59:28;;;;;;;7.73;3.03;;;;;;;;;;5081568;28;20024;-61
2023/07/22 01:01:55;;;;;;;5.40;2.72;;;;;;;;;;5085298;28;20258;-63
2023/07/22 01:04:23;;;;;;;8.93;2.85;;;;;;;;;;5083318;28;20099;-63
2023/07/22 01:06:52;;;;;;;6.10;2.75;;;;;;;;;;5089167;28;20730;-63
2023/07/22 01:09:18;;;;;;;7.10;2.72;;;;;;;;;;5081986;28;20020;-62
2023/07/22 01:11:43;;;;;;;6.70;2.60;;;;;;;;;;5089928;28;20019;-63
2023/07/22 01:14:09;;;;;;;6.00;2.63;;;;;;;;;;5080543;28;20829;-63
2023/07/22 01:16:34;;;;;;;5.15;2.65;;;;;;;;;;5085714;28;20277;-64
2023/07/22 01:19:00;;;;;;;5.18;2.47;;;;;;;;;;5081483;28;20048;-64
2023/07/22 01:21:25;;;;;;;6.80;2.75;;;;;;;;;;5080783;28;20869;-63
2023/07/22 01:23:51;;;;;;;5.68;2.80;;;;;;;;;;5081702;28;20016;-62
2023/07/22 01:26:19;;;;;;;5.63;2.58;;;;;;;;;;5081846;28;20028;-62
2023/07/22 01:28:44;;;;;;;7.78;3.00;;;;;;;;;;5081699;28;20116;-63
2023/07/22 01:31:09;;;;;;;8.40;2.90;;;;;;;;;;5083561;28;20023;-62
2023/07/22 01:33:35;;;;;;;6.65;2.60;;;;;;;;;;5081691;28;20096;-65
2023/07/22 01:36:02;;;;;;;7.33;2.90;;;;;;;;;;5085517;28;20101;-64
2023/07/22 01:38:29;;;;;;;6.45;2.90;;;;;;;;;;5085616;28;20257;-63
2023/07/22 01:40:54;;;;;;;6.85;2.58;;;;;;;;;;5089213;28;20030;-63
2023/07/22 01:43:19;;;;;;;5.20;2.70;;;;;;;;;;5096678;28;20019;-63
2023/07/22 01:45:45;;;;;;;6.03;2.90;;;;;;;;;;5089263;28;20035;-66
2023/07/22 01:48:13;;;;;;;8.07;2.75;;;;;;;;;;5084388;28;20968;-63
2023/07/22 01:50:38;;;;;;;6.82;2.80;;;;;;;;;;5085013;28;20023;-63
2023/07/22 01:53:05;;;;;;;5.27;2.53;;;;;;;;;;5082882;28;20034;-64
2023/07/22 01:55:32;;;;;;;5.65;2.58;;;;;;;;;;5091319;28;20277;-63
2023/07/22 01:57:57;;;;;;;7.22;2.80;;;;;;;;;;5088122;28;20018;-63
2023/07/22 02:00:26;;;;;;;5.13;2.60;;;;;;;;;;5084069;28;20036;-62
2023/07/22 02:02:54;;;;;;;5.78;2.63;;;;;;;;;;5087788;28;20023;-63
2023/07/22 02:05:21;;;;;;;6.03;2.78;;;;;;;;;;5086156;28;20031;-63
2023/07/22 02:07:49;;;;;;;7.30;2.63;;;;;;;;;;5081881;28;20008;-64
2023/07/22 02:10:14;;;;;;;6.57;2.63;;;;;;;;;;5080668;28;20031;-63
2023/07/22 02:12:40;;;;;;;5.35;2.50;;;;;;;;;;5088915;28;20015;-63
2023/07/22 02:15:05;;;;;;;6.10;2.43;;;;;;;;;;5090083;28;20028;-63
2023/07/22 02:17:30;;;;;;;7.57;2.60;;;;;;;;;;5088386;28;20835;-63
2023/07/22 02:19:56;;;;;;;7.03;2.43;;;;;;;;;;5087704;28;20023;-63
2023/07/22 02:22:21;;;;;;;6.30;2.30;;;;;;;;;;5085244;28;20258;-63
2023/07/22 02:24:46;;;;;;;6.87;2.77;;;;;;;;;;5092701;28;20027;-62
2023/07/22 02:27:12;;;;;;;5.60;2.57;;;;;;;;;;5086234;28;20024;-63
2023/07/22 02:29:38;;;;;;;5.53;2.47;;;;;;;;;;5082572;28;20313;-63
2023/07/22 02:32:06;;;;;;;5.20;2.40;;;;;;;;;;5087639;28;20040;-63
2023/07/22 02:34:32;;;;;;;7.07;2.65;;;;;;;;;;5085766;28;20024;-63
2023/07/22 02:37:00;;;;;;;6.28;2.58;;;;;;;;;;5089476;28;20453;-62
2023/07/22 02:39:25;;;;;;;5.30;2.60;;;;;;;;;;5082429;28;20020;-63
2023/07/22 02:41:50;;;;;;;6.33;2.93;;;;;;;;;;5091001;28;20027;-63
2023/07/22 02:44:15;;;;;;;6.10;2.70;;;;;;;;;;5087518;28;20257;-63
2023/07/22 02:46:41;;;;;;;7.05;2.65;;;;;;;;;;5085717;28;20273;-63
2023/07/22 02:49:06;;;;;;;5.20;2.35;;;;;;;;;;5087513;28;20101;-63
2023/07/22 02:51:31;;;;;;;7.20;2.50;;;;;;;;;;5084103;28;20386;-62
2023/07/22 02:53:57;;;;;;;5.40;2.40;;;;;;;;;;5085624;28;20020;-64
2023/07/22 02:56:23;;;;;;;6.25;2.88;;;;;;;;;;5087472;28;20569;-63
2023/07/22 02:58:49;;;;;;;6.05;2.30;;;;;;;;;;5086077;28;20030;-63
2023/07/22 03:01:14;;;;;;;5.32;2.67;;;;;;;;;;5085309;28;20024;-63
2023/07/22 03:03:40;;;;;;;8.02;2.90;;;;;;;;;;5090660;28;20116;-64
2023/07/22 03:06:09;;;;;;;7.40;3.00;;;;;;;;;;5088371;28;20057;-64
2023/07/22 03:08:34;;;;;;;8.48;2.35;;;;;;;;;;5088410;28;20028;-64
2023/07/22 03:11:00;;;;;;;6.07;2.30;;;;;;;;;;5086963;28;20645;-64
2023/07/22 03:13:29;;;;;;;7.00;2.72;;;;;;;;;;5081953;28;20213;-63
2023/07/22 03:15:55;;;;;;;5.43;2.38;;;;;;;;;;5085454;28;20070;-63
2023/07/22 03:18:20;;;;;;;6.53;2.63;;;;;;;;;;5079646;28;20051;-64
2023/07/22 03:20:48;;;;;;;6.43;2.47;;;;;;;;;;5085351;28;20040;-65
2023/07/22 03:23:13;;;;;;;5.22;2.67;;;;;;;;;;5078387;28;20375;-64
2023/07/22 03:25:38;;;;;;;7.23;2.87;;;;;;;;;;5087185;28;20458;-64
2023/07/22 03:28:04;;;;;;;5.93;2.60;;;;;;;;;;5088099;28;20696;-65
2023/07/22 03:30:30;;;;;;;4.93;2.47;;;;;;;;;;5091510;28;20281;-64
2023/07/22 03:32:55;;;;;;;5.47;2.60;;;;;;;;;;5084454;28;20024;-64
2023/07/22 03:35:23;;;;;;;5.87;2.43;;;;;;;;;;5088979;28;20023;-65
2023/07/22 03:37:51;;;;;;;4.88;2.28;;;;;;;;;;5083967;28;20265;-65
2023/07/22 03:40:49;;;;;;;6.30;2.28;;;;;;;;;;5088723;28;20027;-64
2023/07/22 03:43:07;;;;;;;6.32;2.40;;;;;;;;;;5093673;28;20594;-65
2023/07/22 03:45:33;;;;;;;5.83;2.47;;;;;;;;;;5080943;28;20028;-63
2023/07/22 03:48:01;;;;;;;5.90;2.33;;;;;;;;;;5091947;28;20264;-64
2023/07/22 03:50:26;;;;;;;6.03;2.42;;;;;;;;;;5084591;28;20026;-65
2023/07/22 03:52:52;;;;;;;7.43;2.50;;;;;;;;;;5090845;28;20015;-63
2023/07/22 03:55:19;;;;;;;6.93;2.70;;;;;;;;;;5084905;28;20394;-65
2023/07/22 03:57:45;;;;;;;6.15;3.95;;;;;;;;;;5086449;28;20026;-65
2023/07/22 04:00:10;;;;;;;5.13;2.30;;;;;;;;;;5080760;28;20027;-65
2023/07/22 04:02:44;;;;;;;6.50;2.50;;;;;;;;;;5096693;28;20019;-65
2023/07/22 04:05:09;;;;;;;7.07;2.80;;;;;;;;;;5083064;28;20080;-64
2023/07/22 04:07:35;;;;;;;6.53;2.50;;;;;;;;;;5090033;28;20027;-63
2023/07/22 04:10:00;;;;;;;5.60;2.60;;;;;;;;;;5079549;27;20020;-64
2023/07/22 04:12:25;;;;;;;7.47;2.20;;;;;;;;;;5085024;28;20024;-64
2023/07/22 04:14:50;;;;;;;7.68;2.70;;;;;;;;;;5079483;28;20796;-63
2023/07/22 04:17:16;;;;;;;6.40;2.30;;;;;;;;;;5087737;28;20077;-64
2023/07/22 04:19:42;;;;;;;5.13;2.20;;;;;;;;;;5082729;28;20111;-63
2023/07/22 04:22:08;;;;;;;8.90;2.60;;;;;;;;;;5083048;28;20024;-63
2023/07/22 04:24:33;;;;;;;6.30;2.65;;;;;;;;;;5084104;28;20024;-66
2023/07/22 04:26:59;;;;;;;4.82;2.22;;;;;;;;;;5085183;28;20039;-63
2023/07/22 04:29:27;;;;;;;5.30;2.42;;;;;;;;;;5086896;28;20389;-64
2023/07/22 04:31:56;;;;;;;5.25;2.40;;;;;;;;;;5086127;28;20019;-64
2023/07/22 04:34:21;;;;;;;7.65;2.55;;;;;;;;;;5085522;28;20012;-62
2023/07/22 04:36:47;;;;;;;8.27;3.20;;;;;;;;;;5085313;28;20389;-63
2023/07/22 04:39:12;;;;;;;5.00;2.30;;;;;;;;;;5086348;28;20372;-64
2023/07/22 04:41:40;;;;;;;5.37;2.20;;;;;;;;;;5087618;28;20945;-64
2023/07/22 04:44:05;;;;;;;6.63;2.47;;;;;;;;;;5082272;28;20351;-64
2023/07/22 04:46:30;;;;;;;6.15;2.22;;;;;;;;;;5093196;28;20385;-63
2023/07/22 04:48:58;;;;;;;5.35;2.25;;;;;;;;;;5086941;28;20020;-64
2023/07/22 04:51:23;;;;;;;6.63;2.50;;;;;;;;;;5084126;28;20039;-63
2023/07/22 04:53:49;;;;;;;5.10;2.00;;;;;;;;;;5082227;28;20028;-64
2023/07/22 04:56:14;;;;;;;8.40;2.88;;;;;;;;;;5080690;28;20036;-63
2023/07/22 04:58:39;;;;;;;5.33;2.37;;;;;;;;;;5091862;28;20372;-64
2023/07/22 05:01:07;;;;;;;7.20;2.40;;;;;;;;;;5078659;28;20266;-63
2023/07/22 05:03:33;;;;;;;7.15;2.58;;;;;;;;;;5086054;28;20034;-63
2023/07/22 05:05:58;;;;;;;6.80;2.40;;;;;;;;;;5083293;28;20038;-64
2023/07/22 05:08:23;;;;;;;6.70;2.27;;;;;;;;;;5087157;28;20345;-64
2023/07/22 05:10:48;;;;;;;6.03;2.20;;;;;;;;;;5087005;28;21165;-64
2023/07/22 05:13:14;;;;;;;6.18;2.40;;;;;;;;;;5104776;27;20047;-64
2023/07/22 05:15:42;;;;;;;6.85;2.53;;;;;;;;;;5092103;28;20019;-62
2023/07/22 05:18:09;;;;;;;5.25;2.50;;;;;;;;;;5083723;28;20143;-63
2023/07/22 05:20:34;;;;;;;4.13;2.00;;;;;;;;;;5092161;28;20054;-63
2023/07/22 05:23:00;;;;;;;5.67;2.17;;;;;;;;;;5083346;28;20118;-64
2023/07/22 05:25:27;;;;;;;6.27;3.07;;;;;;;;;;5089673;28;20019;-65
2023/07/22 05:27:52;;;;;;;6.50;2.25;;;;;;;;;;5087795;28;20265;-63
2023/07/22 05:30:18;;;;;;;7.00;2.60;;;;;;;;;;5090129;28;20553;-65
2023/07/22 05:32:48;;;;;;;11.13;3.33;;;;;;;;;;5088126;28;20027;-64
2023/07/22 05:35:16;;;;;;;7.32;2.63;;;;;;;;;;5081594;28;20280;-64
2023/07/22 05:37:41;;;;;;;5.43;2.45;;;;;;;;;;5087714;28;20569;-64
2023/07/22 05:40:09;;;;;;;7.80;2.63;;;;;;;;;;5079980;28;20024;-64
2023/07/22 05:42:37;;;;;;;7.77;2.43;;;;;;;;;;5088858;28;20796;-64
2023/07/22 05:45:03;;;;;;;5.82;2.58;;;;;;;;;;5080427;28;20034;-64
2023/07/22 05:47:28;;;;;;;6.65;2.30;;;;;;;;;;5095257;28;20028;-65
2023/07/22 05:49:54;;;;;;;9.20;2.55;;;;;;;;;;5083532;28;20050;-65
2023/07/22 05:52:19;;;;;;;7.53;2.70;;;;;;;;;;5084592;28;20116;-66
2023/07/22 05:54:44;;;;;;;5.90;2.67;;;;;;;;;;5081695;28;20154;-65
2023/07/22 05:57:14;;;;;;;7.90;2.70;;;;;;;;;;5087838;28;20620;-65
2023/07/22 05:59:42;;;;;;;6.03;2.40;;;;;;;;;;5089244;28;20070;-65
2023/07/22 06:02:08;;;;;;;7.47;2.50;;;;;;;;;;5081245;28;20025;-66
2023/07/22 06:04:36;;;;;;;8.68;2.60;;;;;;;;;;5091333;28;20035;-64
2023/07/22 06:07:01;;;;;;;7.20;2.65;;;;;;;;;;5079097;28;20028;-65
2023/07/22 06:09:26;;;;;;;5.90;2.80;;;;;;;;;;5088528;28;20024;-62
2023/07/22 06:11:51;;;;;;;5.40;2.43;;;;;;;;;;5090091;28;20274;-62
2023/07/22 06:14:17;;;;;;;5.60;3.40;;;;;;;;;;5084722;28;20616;-66
2023/07/22 06:16:42;;;;;;;5.73;2.73;;;;;;;;;;5091037;28;20301;-64
2023/07/22 06:19:09;;;;;;;9.70;5.20;;;;;;;;;;5075097;28;20158;-63
2023/07/22 06:21:36;;;;;;;6.43;3.15;;;;;;;;;;5087939;28;21105;-64
2023/07/22 06:24:03;;;;;;;6.47;2.78;;;;;;;;;;5083996;28;20016;-64
2023/07/22 06:26:31;;;;;;;6.07;2.80;;;;;;;;;;5086789;28;20747;-64
2023/07/22 06:28:56;;;;;;;5.05;2.20;;;;;;;;;;5081259;28;20111;-63
2023/07/22 06:31:22;;;;;;;6.32;2.08;;;;;;;;;;5084363;28;20506;-64
2023/07/22 06:33:52;;;;;;;6.68;2.30;;;;;;;;;;5092188;28;20027;-65
2023/07/22 06:36:17;;;;;;;6.13;2.47;;;;;;;;;;5082041;28;20854;-65
2023/07/22 06:38:43;;;;;;;5.97;2.42;;;;;;;;;;5098649;28;20027;-65
2023/07/22 06:41:08;;;;;;;5.40;2.42;;;;;;;;;;5085372;28;20020;-65
2023/07/22 06:43:34;;;;;;;6.15;2.30;;;;;;;;;;5088373;28;20059;-65
2023/07/22 06:46:01;;;;;;;5.67;2.30;;;;;;;;;;5080565;28;20545;-66
2023/07/22 06:48:26;;;;;;;6.30;2.30;;;;;;;;;;5088283;28;20264;-64
2023/07/22 06:50:52;;;;;;;4.93;2.38;;;;;;;;;;5084882;28;20021;-61
2023/07/22 06:53:17;;;;;;;4.57;2.07;;;;;;;;;;5092253;28;20024;-65
2023/07/22 06:55:52;;;;;;;5.97;2.10;;;;;;;;;;5085523;28;20276;-65
2023/07/22 06:58:18;;;;;;;4.78;2.00;;;;;;;;;;5092677;28;20263;-65
2023/07/22 07:00:43;;;;;;;6.45;3.10;;;;;;;;;;5088244;28;20480;-65
2023/07/22 07:03:10;;;;;;;6.17;2.67;;;;;;;;;;5094298;28;20501;-64
2023/07/22 07:05:41;;;;;;;6.38;2.72;;;;;;;;;;5087038;28;20027;-64
2023/07/22 07:08:06;;;;;;;5.85;2.22;;;;;;;;;;5091264;28;20032;-62
2023/07/22 07:10:36;;;;;;;4.72;2.38;;;;;;;;;;5092850;28;20458;-61
2023/07/22 07:13:01;;;;;;;4.30;1.92;;;;;;;;;;5087636;28;20459;-63
2023/07/22 07:15:26;;;;;;;5.90;2.40;;;;;;;;;;5092388;28;20030;-63
2023/07/22 07:20:35;;;;;;;7.15;2.70;;;;;;;;;;5091772;28;20070;-63
2023/07/22 07:23:31;;;;;;;4.88;2.20;;;;;;;;;;5093364;28;20525;-64
2023/07/22 07:25:56;;;;;;;4.68;2.08;;;;;;;;;;5082784;28;20024;-64
2023/07/22 07:28:43;;;;;;;4.73;2.13;;;;;;;;;;5089171;28;20022;-64
2023/07/22 07:31:09;;;;;;;5.38;2.22;;;;;;;;;;5090369;28;20027;-63
2023/07/22 07:33:37;;;;;;;5.13;2.22;;;;;;;;;;5086874;28;20024;-64
2023/07/22 07:36:03;;;;;;;9.73;2.30;;;;;;;;;;5088318;28;20108;-63
2023/07/22 07:38:28;;;;;;;4.97;1.95;;;;;;;;;;5087042;28;20019;-62
2023/07/22 07:40:58;;;;;;;5.65;2.25;;;;;;;;;;5088040;28;20020;-62
2023/07/22 07:43:23;;;;;;;5.25;2.47;;;;;;;;;;5083549;28;20088;-63
2023/07/22 07:45:48;;;;;;;7.32;2.22;;;;;;;;;;5086933;28;20074;-62
2023/07/22 07:48:14;;;;;;;6.57;1.95;;;;;;;;;;5071889;28;20069;-62
2023/07/22 07:50:39;;;;;;;4.82;2.25;;;;;;;;;;5085777;28;20103;-64
2023/07/22 07:53:04;;;;;;;7.07;2.40;;;;;;;;;;5081428;27;20249;-64
2023/07/22 07:55:30;;;;;;;5.87;2.40;;;;;;;;;;5088762;28;20293;-64
2023/07/22 07:57:55;;;;;;;7.20;2.70;;;;;;;;;;5081770;28;21088;-62
2023/07/22 08:00:21;;;;;;;5.90;2.40;;;;;;;;;;5089181;28;20728;-62
2023/07/22 08:02:46;;;;;;;5.57;2.10;;;;;;;;;;5088827;28;20265;-63
2023/07/22 08:05:12;;;;;;;5.97;2.25;;;;;;;;;;5079019;28;20431;-62
2023/07/22 08:07:37;;;;;;;6.80;2.28;;;;;;;;;;5091100;28;20073;-65
2023/07/22 08:10:07;;;;;;;5.70;2.30;;;;;;;;;;5081607;28;20108;-62
2023/07/22 08:12:32;;;;;;;5.00;2.30;;;;;;;;;;5085896;28;20023;-62
2023/07/22 08:14:57;;;;;;;5.20;2.28;;;;;;;;;;5089153;28;20015;-63
2023/07/22 08:17:22;;;;;;;5.57;2.37;;;;;;;;;;5077773;28;20081;-62
2023/07/22 08:19:49;;;;;;;5.57;2.37;;;;;;;;;;5076721;28;20186;-64
2023/07/22 08:22:14;;;;;;;4.70;2.38;;;;;;;;;;5084492;28;20356;-64
2023/07/22 08:24:42;;;;;;;9.03;2.50;;;;;;;;;;5088186;28;20049;-63
2023/07/22 08:27:07;;;;;;;6.38;2.50;;;;;;;;;;5088052;28;20027;-63
2023/07/22 08:29:32;;;;;;;5.13;2.40;;;;;;;;;;5079302;28;20032;-62
2023/07/22 08:31:58;;;;;;;5.68;2.20;;;;;;;;;;5087744;28;20518;-63
2023/07/22 08:34:23;;;;;;;5.15;2.25;;;;;;;;;;5078518;28;20027;-63
2023/07/22 08:36:49;;;;;;;5.30;2.50;;;;;;;;;;5078374;28;20671;-61
2023/07/22 08:39:14;;;;;;;6.45;2.13;;;;;;;;;;5076492;28;21221;-62
2023/07/22 08:41:40;;;;;;;6.18;2.28;;;;;;;;;;5086065;28;20024;-61
2023/07/22 08:44:07;;;;;;;6.22;2.38;;;;;;;;;;5076163;28;20047;-63
2023/07/22 08:46:33;;;;;;;4.88;2.25;;;;;;;;;;5083269;28;20077;-61
2023/07/22 08:49:01;;;;;;;5.75;2.40;;;;;;;;;;5086243;28;20011;-64
2023/07/22 08:51:30;;;;;;;5.35;2.20;;;;;;;;;;5079743;28;20447;-63
2023/07/22 08:53:58;;;;;;;7.00;3.00;;;;;;;;;;5082255;28;20019;-63
2023/07/22 08:56:27;;;;;;;5.73;2.60;;;;;;;;;;5077686;28;20265;-63
2023/07/22 08:58:58;;;;;;;5.50;2.08;;;;;;;;;;5087505;28;20832;-61
2023/07/22 09:01:23;;;;;;;9.80;4.72;;;;;;;;;;5077772;28;20027;-61
2023/07/22 09:03:51;;;;;;;5.45;2.95;;;;;;;;;;5088110;28;20026;-64
2023/07/22 09:06:19;;;;;;;7.85;3.47;;;;;;;;;;5086162;28;20028;-63
2023/07/22 09:08:45;;;;;;;4.97;2.30;;;;;;;;;;5080282;28;20139;-63
2023/07/22 09:11:10;;;;;;;5.90;2.47;;;;;;;;;;5086695;28;20023;-64
2023/07/22 09:13:40;;;;;;;5.97;2.60;;;;;;;;;;5077559;28;20019;-65
2023/07/22 09:16:06;;;;;;;7.93;2.50;;;;;;;;;;5081950;28;20036;-67
2023/07/22 09:18:34;;;;;;;4.60;2.35;;;;;;;;;;5079129;28;20039;-66
2023/07/22 09:21:00;;;;;;;5.00;2.10;;;;;;;;;;5087508;28;20126;-64
2023/07/22 09:23:37;;;;;;;5.77;2.80;;;;;;;;;;5078993;28;20408;-67
2023/07/22 09:26:13;;;;;;;5.30;2.80;;;;;;;;;;5087292;28;20257;-66
2023/07/22 09:28:57;;;;;;;5.32;2.78;;;;;;;;;;5078584;28;20051;-67
2023/07/22 09:31:23;;;;;;;6.43;2.67;;;;;;;;;;5081279;28;20027;-65
2023/07/22 09:33:49;;;;;;;6.97;2.90;;;;;;;;;;5081236;28;20020;-66
2023/07/22 09:36:16;;;;;;;6.32;2.50;;;;;;;;;;5082115;28;20028;-64
2023/07/22 09:38:42;;;;;;;6.13;2.70;;;;;;;;;;5080971;28;20015;-65
2023/07/22 09:41:10;;;;;;;4.85;2.42;;;;;;;;;;5085797;28;20033;-65
2023/07/22 09:43:37;;;;;;;5.75;2.47;;;;;;;;;;5080453;28;20532;-68
2023/07/22 09:46:09;;;;;;;5.47;2.60;;;;;;;;;;5088422;28;20142;-66
2023/07/22 09:48:41;;;;;;;6.13;2.40;;;;;;;;;;5075666;28;20052;-67
2023/07/22 09:51:11;;;;;;;6.53;2.78;;;;;;;;;;5086864;28;20024;-64
2023/07/22 09:53:36;;;;;;;5.85;2.90;;;;;;;;;;5080500;28;20070;-65
2023/07/22 09:56:05;;;;;;;7.22;3.10;;;;;;;;;;5084037;28;20451;-66
2023/07/22 09:58:30;;;;;;;5.60;2.65;;;;;;;;;;5086545;28;20016;-65
2023/07/22 10:00:59;;;;;;;6.40;2.70;;;;;;;;;;5081298;28;21241;-67
2023/07/22 10:03:27;;;;;;;5.35;2.63;;;;;;;;;;5091078;28;20023;-65
2023/07/22 10:05:53;;;;;;;5.30;2.67;;;;;;;;;;5078812;28;20028;-64
2023/07/22 10:08:19;;;;;;;5.57;2.58;;;;;;;;;;5078801;28;20085;-66
2023/07/22 10:10:44;;;;;;;5.65;2.95;;;;;;;;;;5086547;28;20047;-65
2023/07/22 10:13:10;;;;;;;4.93;2.70;;;;;;;;;;5084853;28;20998;-66
2023/07/22 10:15:36;;;;;;;5.57;3.08;;;;;;;;;;5089257;28;20062;-65
2023/07/22 10:18:02;;;;;;;8.10;2.67;;;;;;;;;;5085251;28;20506;-65
2023/07/22 10:20:28;;;;;;;6.60;3.08;;;;;;;;;;5086199;28;20026;-65
2023/07/22 10:22:54;;;;;;;5.63;2.78;;;;;;;;;;5082165;28;20023;-67
2023/07/22 10:25:20;;;;;;;6.78;2.83;;;;;;;;;;5089652;28;20019;-67
2023/07/22 10:27:46;;;;;;;5.60;2.90;;;;;;;;;;5084219;28;20023;-67
2023/07/22 10:30:13;;;;;;;5.50;2.70;;;;;;;;;;5084890;27;20085;-66
2023/07/22 10:32:42;;;;;;;5.05;2.70;;;;;;;;;;5089217;27;20434;-67
2023/07/22 10:35:10;;;;;;;5.85;3.10;;;;;;;;;;5084241;28;20024;-67
2023/07/22 10:37:35;;;;;;;6.63;3.08;;;;;;;;;;5088981;28;20023;-65
2023/07/22 10:40:21;;;;;;;8.43;3.10;;;;;;;;;;5086610;28;20847;-67
2023/07/22 10:42:53;;;;;;;6.10;3.00;;;;;;;;;;5079829;27;20040;-66
2023/07/22 10:45:28;;;;;;;8.18;3.30;;;;;;;;;;5094531;28;20023;-66
2023/07/22 10:48:04;;;;;;;6.15;2.92;;;;;;;;;;5081523;28;20344;-66
2023/07/22 10:50:40;;;;;;;6.30;2.88;;;;;;;;;;5085753;28;20097;-66
2023/07/22 10:53:08;;;;;;;6.22;2.97;;;;;;;;;;5083398;28;20019;-65
2023/07/22 10:55:53;;;;;;;6.38;3.20;;;;;;;;;;5086890;28;20521;-66
2023/07/22 10:58:20;;;;;;;5.72;3.00;;;;;;;;;;5096689;28;20031;-66
2023/07/22 11:00:45;;;;;;;7.90;3.33;;;;;;;;;;5083581;28;20020;-67
2023/07/22 11:03:12;;;;;;;5.73;3.10;;;;;;;;;;5089409;28;20035;-67
2023/07/22 11:05:47;;;;;;;5.53;2.72;;;;;;;;;;5088721;28;20283;-66
2023/07/22 11:08:12;;;;;;;6.10;3.05;;;;;;;;;;5091226;28;20009;-66
2023/07/22 11:10:51;;;;;;;5.70;2.77;;;;;;;;;;5082760;28;20080;-65
2023/07/22 11:13:26;;;;;;;5.97;3.20;;;;;;;;;;5089032;28;20018;-66
2023/07/22 11:15:51;;;;;;;10.82;3.20;;;;;;;;;;5078770;28;20830;-66
2023/07/22 11:18:16;;;;;;;7.10;2.93;;;;;;;;;;5082862;28;20048;-68
2023/07/22 11:20:41;;;;;;;6.77;3.07;;;;;;;;;;5084463;28;20016;-67
2023/07/22 11:23:07;;;;;;;5.57;2.80;;;;;;;;;;5082866;28;21378;-67
2023/07/22 11:25:33;;;;;;;5.78;2.92;;;;;;;;;;5088400;28;20601;-66
2023/07/22 11:27:58;;;;;;;8.38;3.13;;;;;;;;;;5080877;28;20019;-66
2023/07/22 11:30:24;;;;;;;6.47;3.13;;;;;;;;;;5091356;28;20028;-66
2023/07/22 11:32:49;;;;;;;7.30;3.42;;;;;;;;;;5080970;27;20466;-65
2023/07/22 11:35:16;;;;;;;6.80;3.20;;;;;;;;;;5084957;28;20103;-65
2023/07/22 11:37:44;;;;;;;6.40;3.00;;;;;;;;;;5088665;28;20289;-65
2023/07/22 11:40:12;;;;;;;6.15;3.00;;;;;;;;;;5082319;28;20032;-65
2023/07/22 11:42:37;;;;;;;5.97;3.13;;;;;;;;;;5086457;28;20039;-67
2023/07/22 11:45:03;;;;;;;6.72;3.03;;;;;;;;;;5085927;28;20072;-66
2023/07/22 11:47:29;;;;;;;5.55;2.95;;;;;;;;;;5088025;28;20020;-65
2023/07/22 11:49:54;;;;;;;8.27;3.15;;;;;;;;;;5079473;28;20119;-66
2023/07/22 11:52:21;;;;;;;6.60;3.53;;;;;;;;;;5078687;28;20023;-66
2023/07/22 11:54:47;;;;;;;6.18;3.10;;;;;;;;;;5084273;28;20118;-66
2023/07/22 11:57:12;;;;;;;5.40;2.85;;;;;;;;;;5081888;28;20039;-66
2023/07/22 11:59:39;;;;;;;6.60;3.30;;;;;;;;;;5087378;28;20757;-67
2023/07/22 12:02:09;;;;;;;6.90;3.00;;;;;;;;;;5080248;28;20273;-67
2023/07/22 12:04:37;;;;;;;5.60;2.95;;;;;;;;;;5084784;28;20020;-66
2023/07/22 12:07:04;;;;;;;7.07;3.22;;;;;;;;;;5078465;28;20126;-66
2023/07/22 12:09:29;;;;;;;7.40;3.33;;;;;;;;;;5085240;28;20401;-65
2023/07/22 12:11:55;;;;;;;6.10;3.00;;;;;;;;;;5087235;28;20023;-64
2023/07/22 12:14:23;;;;;;;7.10;3.08;;;;;;;;;;5086017;28;20391;-66
2023/07/22 12:16:52;;;;;;;6.77;3.60;;;;;;;;;;5090371;28;20032;-67
2023/07/22 12:19:18;;;;;;;8.25;3.40;;;;;;;;;;5081927;28;20043;-66
2023/07/22 12:21:43;;;;;;;7.13;3.20;;;;;;;;;;5089245;28;20119;-66
2023/07/22 12:24:13;;;;;;;6.33;2.80;;;;;;;;;;5081506;28;20288;-66
2023/07/22 12:26:38;;;;;;;6.38;2.90;;;;;;;;;;5086433;28;20027;-66
2023/07/22 12:29:03;;;;;;;6.43;3.40;;;;;;;;;;5081455;28;20020;-66
2023/07/22 12:31:31;;;;;;;7.13;3.37;;;;;;;;;;5085825;28;20023;-66
2023/07/22 12:33:58;;;;;;;9.27;3.35;;;;;;;;;;5082918;27;20824;-69
2023/07/22 12:36:24;;;;;;;6.60;3.45;;;;;;;;;;5079740;28;20043;-65
2023/07/22 12:38:52;;;;;;;6.73;3.03;;;;;;;;;;5080902;28;20019;-67
2023/07/22 12:41:20;;;;;;;7.95;3.50;;;;;;;;;;5081632;28;20024;-66
2023/07/22 12:43:45;;;;;;;7.03;3.58;;;;;;;;;;5073136;28;20030;-67
2023/07/22 12:46:13;;;;;;;6.33;3.30;;;;;;;;;;5084763;28;20024;-66
2023/07/22 12:48:40;;;;;;;9.25;3.72;;;;;;;;;;5084215;28;20023;-66
2023/07/22 12:51:06;;;;;;;7.35;3.22;;;;;;;;;;5083392;27;20028;-66
2023/07/22 12:53:31;;;;;;;9.53;3.63;;;;;;;;;;5090725;28;20328;-65
2023/07/22 12:55:56;;;;;;;6.40;3.33;;;;;;;;;;5080880;28;20028;-65
2023/07/22 12:58:21;;;;;;;6.43;3.57;;;;;;;;;;5077097;28;20642;-65
2023/07/22 13:00:47;;;;;;;6.22;3.40;;;;;;;;;;5086842;28;20305;-66
2023/07/22 13:03:12;;;;;;;7.30;3.47;;;;;;;;;;5084165;28;20076;-68
2023/07/22 13:05:37;;;;;;;6.47;3.47;;;;;;;;;;5084788;28;20276;-66
2023/07/22 13:08:02;;;;;;;6.67;3.30;;;;;;;;;;5084868;28;21439;-65
2023/07/22 13:10:28;;;;;;;8.25;3.75;;;;;;;;;;5083332;28;20023;-66
2023/07/22 13:12:56;;;;;;;6.32;3.78;;;;;;;;;;5075883;28;20035;-67
2023/07/22 13:15:24;;;;;;;8.15;3.63;;;;;;;;;;5088292;28;20073;-66
2023/07/22 13:17:52;;;;;;;6.63;3.90;;;;;;;;;;5088721;28;20071;-66
2023/07/22 13:20:17;;;;;;;7.55;3.60;;;;;;;;;;5088341;28;20028;-66
2023/07/22 13:22:43;;;;;;;6.82;3.17;;;;;;;;;;5085246;28;20078;-66
2023/07/22 13:25:09;;;;;;;7.63;3.60;;;;;;;;;;5075872;28;20345;-65
2023/07/22 13:27:34;;;;;;;5.97;3.35;;;;;;;;;;5091718;28;20015;-67
2023/07/22 13:30:05;;;;;;;6.53;3.60;;;;;;;;;;5089821;28;20019;-66
2023/07/22 13:32:30;;;;;;;6.00;3.50;;;;;;;;;;5080376;28;20028;-65
2023/07/22 13:34:55;;;;;;;7.50;3.60;;;;;;;;;;5087498;28;20100;-65
2023/07/22 13:37:20;;;;;;;5.70;3.50;;;;;;;;;;5079582;28;20036;-68
2023/07/22 13:39:48;;;;;;;8.40;3.63;;;;;;;;;;5092212;28;20023;-66
2023/07/22 13:42:13;;;;;;;6.43;3.58;;;;;;;;;;5079721;28;20244;-67
2023/07/22 13:44:38;;;;;;;6.57;3.50;;;;;;;;;;5091612;28;21360;-67
2023/07/22 13:47:04;;;;;;;8.27;4.00;;;;;;;;;;5082015;28;20032;-66
2023/07/22 13:49:29;;;;;;;5.53;3.03;;;;;;;;;;5087743;28;20055;-65
2023/07/22 13:51:54;;;;;;;6.43;3.90;;;;;;;;;;5083512;28;20123;-65
2023/07/22 13:54:19;;;;;;;6.23;3.70;;;;;;;;;;5085019;28;20119;-66
2023/07/22 13:56:46;;;;;;;7.63;3.55;;;;;;;;;;5087258;28;20111;-65
2023/07/22 13:59:11;;;;;;;7.85;3.53;;;;;;;;;;5085015;28;20027;-66
2023/07/22 14:01:37;;;;;;;7.00;3.60;;;;;;;;;;5088934;28;20020;-66
2023/07/22 14:04:02;;;;;;;7.07;3.47;;;;;;;;;;5088115;28;20614;-66
2023/07/22 14:06:28;;;;;;;6.90;4.07;;;;;;;;;;5087864;28;20659;-66
2023/07/22 14:08:53;;;;;;;6.05;3.63;;;;;;;;;;5089041;28;20537;-67
2023/07/22 14:11:19;;;;;;;6.40;3.90;;;;;;;;;;5091062;28;20124;-67
2023/07/22 14:13:50;;;;;;;8.40;4.00;;;;;;;;;;5084382;28;20038;-67
2023/07/22 14:16:18;;;;;;;7.65;3.90;;;;;;;;;;5083942;28;20020;-66
2023/07/22 14:18:43;;;;;;;7.35;4.07;;;;;;;;;;5085770;28;20151;-65
2023/07/22 14:21:10;;;;;;;8.53;3.87;;;;;;;;;;5086578;28;20053;-67
2023/07/22 14:23:36;;;;;;;9.23;4.35;;;;;;;;;;5082612;28;20265;-65
2023/07/22 14:26:01;;;;;;;7.93;4.00;;;;;;;;;;5082546;28;20092;-65
2023/07/22 14:28:28;;;;;;;6.23;3.50;;;;;;;;;;5082596;28;20024;-64
2023/07/22 14:30:56;;;;;;;8.95;3.78;;;;;;;;;;5069266;28;20024;-64
2023/07/22 14:33:21;;;;;;;7.30;3.83;;;;;;;;;;5076233;28;20030;-65
2023/07/22 14:35:47;;;;;;;7.13;4.22;;;;;;;;;;5070917;28;20027;-64
2023/07/22 14:38:12;;;;;;;6.15;4.00;;;;;;;;;;5069107;28;20350;-64
2023/07/22 14:40:37;;;;;;;8.30;3.73;;;;;;;;;;5079487;28;20355;-66
2023/07/22 14:43:04;;;;;;;6.63;3.80;;;;;;;;;;5072863;28;20088;-65